Time;durP1;ratioP1;P1;durP2;ratioP2;P2;SDS_P1;SDS_P2;PMS_P1;PMS_P2;Temp;Humidity;BMP_temperature;BMP_pressure;BME280_temperature;BME280_humidity;BME280_pressure;Samples;Min_cycle;Max_cycle;Signal;HPM_P1;HPM_P2
2022/01/07 00:00:16;;;;;;;4.95;2.53;;;-1.30;99.90;;;;;;5112208;28;20690;-75
2022/01/07 00:02:48;;;;;;;5.65;2.35;;;-1.20;99.90;;;;;;5131261;28;20171;-75
2022/01/07 00:05:15;;;;;;;7.28;1.80;;;-1.20;99.90;;;;;;5130321;28;20155;-75
2022/01/07 00:07:42;;;;;;;3.53;1.55;;;-1.30;99.90;;;;;;5113463;28;20167;-75
2022/01/07 00:10:11;;;;;;;2.38;1.45;;;-1.30;99.90;;;;;;5130661;28;20497;-75
2022/01/07 00:12:37;;;;;;;2.45;1.38;;;-1.30;99.90;;;;;;5126589;28;20179;-75
2022/01/07 00:15:05;;;;;;;4.60;1.88;;;-1.20;99.90;;;;;;5120433;28;20190;-75
2022/01/07 00:17:31;;;;;;;1.92;1.48;;;-1.20;99.90;;;;;;5111296;28;20163;-75
2022/01/07 00:19:57;;;;;;;1.35;1.00;;;-1.10;99.90;;;;;;5111232;28;20218;-75
2022/01/07 00:22:24;;;;;;;1.73;1.13;;;-1.20;99.90;;;;;;5111312;28;20163;-75
2022/01/07 00:24:50;;;;;;;1.48;1.38;;;-1.20;99.90;;;;;;5111924;28;20255;-75
2022/01/07 00:27:16;;;;;;;1.40;1.25;;;-1.30;99.90;;;;;;5122245;28;20233;-74
2022/01/07 00:29:42;;;;;;;2.20;1.13;;;-1.30;99.90;;;;;;5112656;28;20194;-75
2022/01/07 00:32:08;;;;;;;1.98;1.50;;;-1.40;99.90;;;;;;5131448;28;20150;-75
2022/01/07 00:34:34;;;;;;;2.13;1.25;;;-1.50;99.90;;;;;;5131325;28;20162;-75
2022/01/07 00:37:00;;;;;;;1.40;1.20;;;-1.70;99.90;;;;;;5113087;28;20174;-75
2022/01/07 00:39:26;;;;;;;3.33;1.60;;;-1.80;99.90;;;;;;5112322;28;20202;-75
2022/01/07 00:41:51;;;;;;;3.00;1.60;;;-1.80;99.90;;;;;;5131339;28;20159;-75
2022/01/07 00:44:17;;;;;;;1.17;1.10;;;-1.80;99.90;;;;;;5130990;28;20210;-74
2022/01/07 00:46:43;;;;;;;3.60;2.03;;;-1.80;99.90;;;;;;5112828;28;20170;-75
2022/01/07 00:49:10;;;;;;;2.70;1.45;;;-1.70;99.90;;;;;;5130540;28;20197;-75
2022/01/07 00:51:36;;;;;;;1.50;1.20;;;-1.60;99.90;;;;;;5130728;28;20190;-75
2022/01/07 00:54:02;;;;;;;0.70;0.70;;;-1.60;99.90;;;;;;5112679;28;20170;-75
2022/01/07 00:56:28;;;;;;;1.13;0.90;;;-1.50;99.90;;;;;;5130999;28;20169;-75
2022/01/07 00:58:54;;;;;;;2.50;1.63;;;-1.50;99.90;;;;;;5129499;28;20276;-74
2022/01/07 01:01:20;;;;;;;2.75;0.90;;;-1.50;99.90;;;;;;5127334;28;20218;-74
2022/01/07 01:03:46;;;;;;;2.08;1.60;;;-1.60;99.90;;;;;;5092291;28;20230;-74
2022/01/07 01:06:12;;;;;;;3.50;1.52;;;-1.50;99.90;;;;;;5109101;28;20194;-74
2022/01/07 01:08:39;;;;;;;2.05;1.05;;;-1.50;99.90;;;;;;5110405;28;20203;-74
2022/01/07 01:11:05;;;;;;;3.92;1.40;;;-1.40;99.90;;;;;;5109446;28;20191;-75
2022/01/07 01:13:34;;;;;;;1.75;1.10;;;-1.40;99.90;;;;;;5108756;28;20163;-75
2022/01/07 01:15:59;;;;;;;1.33;1.20;;;-1.40;99.90;;;;;;5110142;28;20160;-75
2022/01/07 01:18:26;;;;;;;3.42;1.00;;;-1.40;99.90;;;;;;5110196;28;20179;-75
2022/01/07 01:20:52;;;;;;;3.17;1.15;;;-1.50;99.90;;;;;;5108789;28;20225;-75
2022/01/07 01:23:18;;;;;;;4.32;1.17;;;-1.70;99.90;;;;;;5108655;28;20187;-75
2022/01/07 01:25:44;;;;;;;2.45;1.00;;;-1.90;99.90;;;;;;5110047;28;20177;-74
2022/01/07 01:28:10;;;;;;;2.00;1.00;;;-2.00;99.90;;;;;;5110020;28;20159;-74
2022/01/07 01:30:36;;;;;;;2.15;1.00;;;-2.00;99.90;;;;;;5108561;28;20196;-75
2022/01/07 01:33:02;;;;;;;2.55;1.35;;;-2.00;99.90;;;;;;5109632;28;20209;-74
2022/01/07 01:35:29;;;;;;;1.58;1.25;;;-2.10;99.90;;;;;;5109684;28;20159;-73
2022/01/07 01:37:55;;;;;;;2.83;1.33;;;-2.00;99.90;;;;;;5091482;28;20228;-74
2022/01/07 01:40:22;;;;;;;2.80;1.05;;;-2.00;99.90;;;;;;5108467;28;20159;-73
2022/01/07 01:42:52;;;;;;;3.60;1.20;;;-2.00;99.90;;;;;;5109721;28;20151;-75
2022/01/07 01:45:20;;;;;;;1.80;0.95;;;-2.10;99.90;;;;;;5108241;28;20189;-75
2022/01/07 01:47:46;;;;;;;3.65;2.08;;;-2.10;99.90;;;;;;5109558;28;20152;-73
2022/01/07 01:50:14;;;;;;;3.13;1.77;;;-2.10;99.90;;;;;;5109573;28;20162;-74
2022/01/07 01:52:45;;;;;;;1.40;1.23;;;-2.00;99.90;;;;;;5109619;28;20180;-75
2022/01/07 01:55:11;;;;;;;2.42;1.20;;;-2.10;99.90;;;;;;5108102;28;20170;-74
2022/01/07 01:57:37;;;;;;;6.15;1.45;;;-2.10;99.90;;;;;;5108166;28;20163;-76
2022/01/07 02:00:06;;;;;;;3.03;1.50;;;-2.10;99.90;;;;;;5108121;28;20222;-74
2022/01/07 02:02:32;;;;;;;1.80;1.40;;;-2.10;99.90;;;;;;5109362;28;20278;-74
2022/01/07 02:04:58;;;;;;;1.63;1.35;;;-2.20;99.90;;;;;;5125084;28;20195;-74
2022/01/07 02:07:26;;;;;;;1.60;1.23;;;-2.20;99.90;;;;;;5108114;28;20231;-74
2022/01/07 02:09:52;;;;;;;1.23;1.02;;;-2.10;99.90;;;;;;5109432;28;20238;-76
2022/01/07 02:12:18;;;;;;;0.90;0.90;;;-2.00;99.90;;;;;;5109244;28;20271;-75
2022/01/07 02:14:52;;;;;;;3.38;1.38;;;-2.00;99.90;;;;;;5107879;28;20163;-76
2022/01/07 02:17:19;;;;;;;2.92;1.90;;;-2.00;99.90;;;;;;5109242;28;20217;-76
2022/01/07 02:19:45;;;;;;;1.50;1.13;;;-2.10;99.90;;;;;;5109254;28;20163;-76
2022/01/07 02:22:13;;;;;;;3.40;1.25;;;-2.30;99.90;;;;;;5109131;28;20190;-75
2022/01/07 02:24:39;;;;;;;3.20;1.63;;;-2.50;99.90;;;;;;5113404;28;20195;-76
2022/01/07 02:27:07;;;;;;;1.38;0.93;;;-2.40;99.90;;;;;;5117372;28;20238;-76
2022/01/07 02:29:33;;;;;;;2.65;1.15;;;-2.50;99.90;;;;;;5117010;28;20364;-75
2022/01/07 02:31:59;;;;;;;2.83;1.45;;;-2.60;99.90;;;;;;5113098;28;20187;-76
2022/01/07 02:34:25;;;;;;;3.10;1.65;;;-2.70;99.90;;;;;;5094994;28;20640;-75
2022/01/07 02:36:51;;;;;;;3.35;1.38;;;-2.60;99.90;;;;;;5094861;28;20224;-74
2022/01/07 02:39:17;;;;;;;1.65;1.30;;;-2.70;99.90;;;;;;5113109;28;20221;-74
2022/01/07 02:41:42;;;;;;;4.10;1.30;;;-2.90;99.90;;;;;;5113134;28;20191;-76
2022/01/07 02:44:08;;;;;;;6.70;1.88;;;-3.00;99.90;;;;;;5094892;28;20187;-75
2022/01/07 02:46:34;;;;;;;2.03;1.15;;;-2.90;99.90;;;;;;5113145;28;20167;-74
2022/01/07 02:49:11;;;;;;;2.25;1.60;;;-2.90;99.90;;;;;;5113119;28;20608;-75
2022/01/07 02:51:37;;;;;;;0.82;0.80;;;-2.80;99.90;;;;;;5112980;28;20218;-74
2022/01/07 02:54:04;;;;;;;3.35;1.25;;;-2.80;99.90;;;;;;5094705;28;20163;-76
2022/01/07 02:56:30;;;;;;;1.25;0.95;;;-2.90;99.90;;;;;;5112982;28;20177;-76
2022/01/07 02:58:56;;;;;;;3.58;1.50;;;-3.00;99.90;;;;;;5112700;28;20238;-76
2022/01/07 03:01:22;;;;;;;3.95;1.20;;;-3.00;99.90;;;;;;5094527;28;20700;-74
2022/01/07 03:03:48;;;;;;;5.70;1.88;;;-3.00;99.90;;;;;;5094619;28;20195;-75
2022/01/07 03:06:14;;;;;;;2.00;1.13;;;-2.90;99.90;;;;;;5112778;28;20166;-75
2022/01/07 03:08:40;;;;;;;3.15;1.35;;;-2.90;99.90;;;;;;5112769;28;20166;-75
2022/01/07 03:11:06;;;;;;;2.53;1.30;;;-2.90;99.90;;;;;;5112621;28;20187;-74
2022/01/07 03:13:32;;;;;;;1.67;1.58;;;-3.10;99.90;;;;;;5112649;28;20527;-74
2022/01/07 03:15:57;;;;;;;4.40;1.90;;;-3.20;99.90;;;;;;5094353;28;20167;-75
2022/01/07 03:18:23;;;;;;;2.60;1.50;;;-3.20;99.90;;;;;;5112608;28;20167;-74
2022/01/07 03:20:49;;;;;;;2.97;1.48;;;-3.30;99.90;;;;;;5112548;28;20198;-74
2022/01/07 03:23:15;;;;;;;2.75;1.40;;;-3.40;99.90;;;;;;5112480;28;20214;-74
2022/01/07 03:25:44;;;;;;;1.90;1.50;;;-3.40;99.90;;;;;;5112447;28;20148;-74
2022/01/07 03:28:10;;;;;;;2.53;1.55;;;-3.50;99.90;;;;;;5112445;28;20160;-74
2022/01/07 03:30:37;;;;;;;3.60;1.63;;;-3.60;99.90;;;;;;5112190;28;20195;-75
2022/01/07 03:33:04;;;;;;;7.88;2.35;;;-3.60;99.90;;;;;;5112260;28;20170;-76
2022/01/07 03:35:30;;;;;;;2.95;1.73;;;-3.60;99.90;;;;;;5092978;28;20167;-75
2022/01/07 03:37:56;;;;;;;7.38;2.38;;;-3.60;99.90;;;;;;5112111;28;20162;-76
2022/01/07 03:40:22;;;;;;;3.00;1.52;;;-3.60;99.90;;;;;;5093774;28;20163;-73
2022/01/07 03:42:49;;;;;;;3.30;2.10;;;-3.60;99.90;;;;;;5093840;28;20163;-76
2022/01/07 03:45:16;;;;;;;6.68;2.05;;;-3.60;99.90;;;;;;5111890;28;20189;-76
2022/01/07 03:47:43;;;;;;;1.70;1.60;;;-3.60;99.90;;;;;;5112063;28;20160;-75
2022/01/07 03:50:13;;;;;;;4.10;1.30;;;-3.70;99.90;;;;;;5111938;28;20156;-73
2022/01/07 03:52:40;;;;;;;4.47;1.60;;;-3.70;99.90;;;;;;5111174;27;20191;-76
2022/01/07 03:55:09;;;;;;;2.10;1.55;;;-3.80;99.90;;;;;;5111580;28;20160;-76
2022/01/07 03:57:35;;;;;;;2.33;1.70;;;-3.80;99.90;;;;;;5110337;28;20255;-76
2022/01/07 04:00:01;;;;;;;2.30;1.77;;;-3.80;99.90;;;;;;5111614;28;20538;-77
2022/01/07 04:02:26;;;;;;;2.97;1.50;;;-3.90;99.90;;;;;;5110299;28;20209;-76
2022/01/07 04:04:52;;;;;;;2.03;1.70;;;-3.90;99.90;;;;;;5093118;28;20290;-76
2022/01/07 04:07:18;;;;;;;4.78;1.30;;;-3.90;99.90;;;;;;5111322;28;20155;-75
2022/01/07 04:09:44;;;;;;;2.80;1.58;;;-4.00;99.90;;;;;;5111568;28;20156;-77
2022/01/07 04:12:10;;;;;;;2.67;1.92;;;-3.90;99.90;;;;;;5093172;28;20191;-74
2022/01/07 04:14:36;;;;;;;3.78;1.92;;;-3.70;99.90;;;;;;5111474;28;20202;-75
2022/01/07 04:17:02;;;;;;;3.03;1.73;;;-3.60;99.90;;;;;;5093232;28;20187;-75
2022/01/07 04:19:28;;;;;;;6.78;2.28;;;-3.70;99.90;;;;;;5111398;28;20186;-74
2022/01/07 04:21:54;;;;;;;3.33;1.88;;;-3.70;99.90;;;;;;5111243;28;20259;-74
2022/01/07 04:24:20;;;;;;;2.30;1.52;;;-3.70;99.90;;;;;;5111134;28;20191;-76
2022/01/07 04:26:46;;;;;;;4.88;1.48;;;-3.80;99.90;;;;;;5111152;28;20178;-74
2022/01/07 04:29:12;;;;;;;3.83;1.85;;;-3.90;99.90;;;;;;5111098;28;20179;-74
2022/01/07 04:31:38;;;;;;;1.73;1.42;;;-3.90;99.90;;;;;;5110955;28;20198;-76
2022/01/07 04:34:04;;;;;;;3.25;1.98;;;-3.90;99.90;;;;;;5110904;28;20167;-75
2022/01/07 04:36:29;;;;;;;2.22;2.03;;;-3.90;99.90;;;;;;5110657;28;20159;-75
2022/01/07 04:38:55;;;;;;;4.78;1.88;;;-3.90;99.90;;;;;;5110920;28;20160;-75
2022/01/07 04:41:21;;;;;;;8.25;2.97;;;-3.90;99.90;;;;;;5110825;28;20191;-75
2022/01/07 04:43:48;;;;;;;4.85;1.92;;;-4.00;99.90;;;;;;5110650;28;20198;-75
2022/01/07 04:46:14;;;;;;;4.60;2.90;;;-4.10;99.90;;;;;;5092382;28;20172;-76
2022/01/07 04:48:40;;;;;;;2.22;1.50;;;-4.10;99.90;;;;;;5110450;28;20593;-76
2022/01/07 04:51:06;;;;;;;1.95;1.65;;;-4.10;99.90;;;;;;5108941;28;20214;-76
2022/01/07 04:53:33;;;;;;;2.55;2.03;;;-4.20;99.90;;;;;;5110578;28;20185;-76
2022/01/07 04:55:59;;;;;;;3.28;2.35;;;-4.10;99.90;;;;;;5110540;28;20174;-76
2022/01/07 04:58:25;;;;;;;3.72;2.83;;;-4.20;99.90;;;;;;5091643;28;20223;-76
2022/01/07 05:00:51;;;;;;;8.15;2.78;;;-4.20;99.90;;;;;;5092126;28;20176;-76
2022/01/07 05:03:17;;;;;;;4.35;2.83;;;-4.20;99.90;;;;;;5110277;28;20202;-75
2022/01/07 05:05:49;;;;;;;6.70;3.40;;;-4.30;99.90;;;;;;5110306;28;20155;-75
2022/01/07 05:08:16;;;;;;;6.05;2.95;;;-4.30;99.90;;;;;;5092073;28;20178;-76
2022/01/07 05:10:42;;;;;;;6.07;2.63;;;-4.30;99.90;;;;;;5110242;28;20148;-74
2022/01/07 05:13:08;;;;;;;5.93;3.45;;;-4.30;99.90;;;;;;5092050;28;20171;-76
2022/01/07 05:15:35;;;;;;;4.00;2.65;;;-4.20;99.90;;;;;;5108544;28;20172;-76
2022/01/07 05:18:01;;;;;;;4.25;2.50;;;-4.00;99.90;;;;;;5109934;28;20167;-75
2022/01/07 05:20:27;;;;;;;4.65;2.00;;;-4.00;99.90;;;;;;5091808;28;20193;-76
2022/01/07 05:22:53;;;;;;;5.53;2.55;;;-4.10;99.90;;;;;;5109902;28;20195;-76
2022/01/07 05:25:21;;;;;;;3.60;2.30;;;-4.10;99.90;;;;;;5109760;28;20207;-76
2022/01/07 05:27:47;;;;;;;3.20;2.65;;;-4.20;99.90;;;;;;5109829;28;20175;-76
2022/01/07 05:30:14;;;;;;;2.28;1.75;;;-4.30;99.90;;;;;;5109991;28;20613;-75
2022/01/07 05:32:40;;;;;;;4.03;2.60;;;-4.40;99.90;;;;;;5109872;28;20183;-75
2022/01/07 05:35:07;;;;;;;4.78;3.00;;;-4.40;99.90;;;;;;5108643;28;20187;-75
2022/01/07 05:37:33;;;;;;;6.03;2.90;;;-4.30;99.90;;;;;;5108589;28;20194;-75
2022/01/07 05:39:59;;;;;;;3.10;2.13;;;-4.30;99.90;;;;;;5091832;28;20171;-76
2022/01/07 05:42:26;;;;;;;6.15;2.60;;;-4.40;99.90;;;;;;5091839;28;20199;-75
2022/01/07 05:44:52;;;;;;;4.80;2.45;;;-4.50;99.90;;;;;;5109634;28;20527;-74
2022/01/07 05:47:18;;;;;;;4.03;2.00;;;-4.50;99.90;;;;;;5108426;28;20170;-73
2022/01/07 05:49:44;;;;;;;6.15;3.20;;;-4.60;99.90;;;;;;5109680;28;20163;-75
2022/01/07 05:52:10;;;;;;;2.47;1.60;;;-4.60;99.90;;;;;;5109580;28;20528;-74
2022/01/07 05:54:37;;;;;;;2.60;1.80;;;-4.60;99.90;;;;;;5109984;28;20174;-76
2022/01/07 05:57:05;;;;;;;4.90;2.05;;;-4.50;99.90;;;;;;5109773;28;20170;-75
2022/01/07 05:59:31;;;;;;;3.72;2.83;;;-4.50;99.90;;;;;;5109345;28;20214;-75
2022/01/07 06:02:00;;;;;;;9.55;2.17;;;-4.40;99.90;;;;;;5109668;28;20241;-75
2022/01/07 06:04:26;;;;;;;4.22;2.70;;;-4.10;99.90;;;;;;5091221;28;20218;-75
2022/01/07 06:06:52;;;;;;;5.13;2.03;;;-3.90;99.90;;;;;;5109345;28;20162;-75
2022/01/07 06:09:18;;;;;;;2.35;1.30;;;-3.80;99.90;;;;;;5091129;28;20257;-75
2022/01/07 06:11:45;;;;;;;4.03;2.22;;;-3.70;99.90;;;;;;5091054;28;20201;-74
2022/01/07 06:14:11;;;;;;;2.25;1.30;;;-3.80;99.90;;;;;;5091117;28;20189;-76
2022/01/07 06:16:37;;;;;;;4.25;1.67;;;-3.90;99.90;;;;;;5109171;28;20187;-75
2022/01/07 06:19:03;;;;;;;3.20;2.03;;;-3.90;99.90;;;;;;5090965;28;20175;-75
2022/01/07 06:21:30;;;;;;;4.05;1.65;;;-4.10;99.90;;;;;;5091060;28;20222;-75
2022/01/07 06:23:56;;;;;;;1.48;1.30;;;-4.00;99.90;;;;;;5109052;28;20179;-75
2022/01/07 06:26:21;;;;;;;2.45;1.70;;;-4.00;99.90;;;;;;5090720;28;20160;-75
2022/01/07 06:28:47;;;;;;;5.38;2.33;;;-4.10;99.90;;;;;;5109209;28;20213;-76
2022/01/07 06:31:13;;;;;;;8.55;3.20;;;-4.10;99.90;;;;;;5109017;28;20211;-75
2022/01/07 06:33:39;;;;;;;2.40;2.20;;;-4.20;99.90;;;;;;5090885;28;20591;-75
2022/01/07 06:36:05;;;;;;;3.05;1.83;;;-4.10;99.90;;;;;;5109071;28;20155;-75
2022/01/07 06:38:31;;;;;;;3.15;2.20;;;-4.10;99.90;;;;;;5109059;28;20164;-73
2022/01/07 06:40:57;;;;;;;2.35;1.48;;;-4.10;99.90;;;;;;5109018;28;20151;-73
2022/01/07 06:43:23;;;;;;;4.10;2.45;;;-4.10;99.90;;;;;;5108925;28;20243;-73
2022/01/07 06:45:49;;;;;;;7.55;1.75;;;-4.20;99.90;;;;;;5090884;28;20159;-73
2022/01/07 06:48:16;;;;;;;3.10;1.40;;;-4.30;99.90;;;;;;5109166;28;20156;-73
2022/01/07 06:50:42;;;;;;;1.58;1.45;;;-4.20;99.90;;;;;;5108990;28;20183;-73
2022/01/07 06:53:07;;;;;;;7.85;3.85;;;-4.20;99.90;;;;;;5090790;28;20167;-73
2022/01/07 06:55:33;;;;;;;6.15;2.28;;;-4.30;99.90;;;;;;5108931;28;20282;-74
2022/01/07 06:57:59;;;;;;;6.10;3.60;;;-4.30;99.90;;;;;;5108680;28;20217;-72
2022/01/07 07:00:25;;;;;;;13.07;7.00;;;-4.30;99.90;;;;;;5108798;28;20167;-73
2022/01/07 07:02:51;;;;;;;7.68;4.07;;;-4.40;99.90;;;;;;5108745;28;20578;-73
2022/01/07 07:05:17;;;;;;;5.00;3.28;;;-4.40;99.90;;;;;;5108628;28;20254;-73
2022/01/07 07:07:43;;;;;;;9.90;4.35;;;-4.20;99.90;;;;;;5090450;28;20173;-73
2022/01/07 07:10:09;;;;;;;11.75;3.70;;;-4.20;99.90;;;;;;5091985;28;20168;-73
2022/01/07 07:12:35;;;;;;;4.20;2.40;;;-4.10;99.90;;;;;;5112272;28;20183;-73
2022/01/07 07:15:01;;;;;;;10.90;4.13;;;-4.10;99.90;;;;;;5112445;28;20159;-73
2022/01/07 07:17:27;;;;;;;8.00;3.60;;;-4.10;99.90;;;;;;5112326;28;20170;-73
2022/01/07 07:19:53;;;;;;;6.00;3.15;;;-4.10;99.90;;;;;;5094286;28;20707;-73
2022/01/07 07:22:18;;;;;;;13.98;4.85;;;-4.10;99.90;;;;;;5112233;28;20191;-73
2022/01/07 07:24:44;;;;;;;11.60;5.40;;;-4.10;99.90;;;;;;5093711;28;20190;-73
2022/01/07 07:27:10;;;;;;;9.70;4.35;;;-3.90;99.90;;;;;;5110997;28;20186;-74
2022/01/07 07:29:36;;;;;;;7.88;3.22;;;-3.80;99.90;;;;;;5112137;28;20412;-73
2022/01/07 07:32:06;;;;;;;9.05;4.75;;;-3.80;99.90;;;;;;5112273;28;20159;-73
2022/01/07 07:37:18;;;;;;;6.70;4.78;;;-3.30;99.90;;;;;;5080219;28;20632;-74
2022/01/07 07:39:44;;;;;;;11.93;4.43;;;-3.40;99.90;;;;;;5111977;28;20198;-73
2022/01/07 07:42:10;;;;;;;6.20;3.92;;;-3.40;99.90;;;;;;5111944;28;20163;-73
2022/01/07 07:44:36;;;;;;;8.82;4.55;;;-3.50;99.90;;;;;;5111913;28;20601;-73
2022/01/07 07:47:02;;;;;;;6.53;3.17;;;-3.40;99.90;;;;;;5111773;28;20156;-72
2022/01/07 07:49:29;;;;;;;9.73;3.22;;;-3.30;99.90;;;;;;5110402;28;20191;-73
2022/01/07 07:51:55;;;;;;;6.25;3.40;;;-3.20;99.90;;;;;;5111792;28;20143;-73
2022/01/07 07:54:21;;;;;;;6.40;3.47;;;-2.90;99.90;;;;;;5093364;28;20167;-73
2022/01/07 07:56:47;;;;;;;7.35;3.35;;;-2.70;99.90;;;;;;5111505;28;20167;-74
2022/01/07 07:59:13;;;;;;;3.97;2.50;;;-2.50;99.90;;;;;;5111376;28;20238;-73
2022/01/07 08:01:39;;;;;;;5.20;3.65;;;-2.30;99.90;;;;;;5111465;28;20613;-74
2022/01/07 08:04:06;;;;;;;5.53;3.15;;;-2.30;99.90;;;;;;5093449;28;20217;-73
2022/01/07 08:06:32;;;;;;;5.47;3.10;;;-2.10;99.90;;;;;;5093300;28;20605;-73
2022/01/07 08:08:58;;;;;;;4.22;2.72;;;-1.90;99.90;;;;;;5111209;28;20191;-73
2022/01/07 08:11:30;;;;;;;5.20;2.58;;;-1.60;99.90;;;;;;5111586;28;20162;-72
2022/01/07 08:16:40;;;;;;;8.15;6.05;;;1.20;99.90;;;;;;5111184;28;20162;-72
2022/01/07 08:19:08;;;;;;;12.07;6.40;;;4.60;99.90;;;;;;5092727;28;20199;-72
2022/01/07 08:21:34;;;;;;;10.90;5.20;;;6.30;99.90;;;;;;5110716;28;20164;-72
2022/01/07 08:24:00;;;;;;;7.07;3.90;;;7.20;99.90;;;;;;5110988;28;20246;-73
2022/01/07 08:26:27;;;;;;;6.43;2.72;;;8.30;99.90;;;;;;5111151;28;20160;-73
2022/01/07 08:29:00;;;;;;;5.90;2.38;;;8.40;99.90;;;;;;5111156;28;20259;-73
2022/01/07 08:36:37;;;;;;;8.88;2.90;;;9.40;99.90;;;;;;5111143;28;20553;-73
2022/01/07 08:39:08;;;;;;;6.57;2.08;;;10.50;99.90;;;;;;5110746;28;20187;-73
2022/01/07 08:41:35;;;;;;;4.32;2.55;;;10.70;99.90;;;;;;5109544;28;20210;-74
2022/01/07 08:44:01;;;;;;;7.07;2.70;;;10.90;99.90;;;;;;5092503;28;20202;-74
2022/01/07 08:46:27;;;;;;;5.28;2.35;;;10.80;99.90;;;;;;5110758;28;20193;-74
2022/01/07 08:48:54;;;;;;;3.65;1.75;;;10.80;99.90;;;;;;5110642;28;20262;-74
2022/01/07 08:51:20;;;;;;;4.45;1.92;;;10.50;99.90;;;;;;5092208;28;20166;-74
2022/01/07 08:53:46;;;;;;;3.65;1.55;;;10.60;99.90;;;;;;5092188;28;20278;-74
2022/01/07 08:56:12;;;;;;;5.10;1.73;;;11.10;99.90;;;;;;5110450;28;20155;-74
2022/01/07 08:58:38;;;;;;;4.85;1.85;;;11.30;99.90;;;;;;5092035;28;20227;-75
2022/01/07 09:01:04;;;;;;;4.88;2.17;;;11.20;99.90;;;;;;5110312;28;20250;-75
2022/01/07 09:03:30;;;;;;;6.00;2.17;;;10.30;99.90;;;;;;5110113;28;20249;-74
2022/01/07 09:05:56;;;;;;;5.53;2.50;;;10.30;99.90;;;;;;5110298;28;20163;-74
2022/01/07 09:08:22;;;;;;;3.20;1.90;;;10.40;99.90;;;;;;5091790;28;20225;-74
2022/01/07 09:10:49;;;;;;;8.48;1.70;;;10.10;99.90;;;;;;5091893;28;20175;-75
2022/01/07 09:13:15;;;;;;;3.58;2.20;;;10.40;99.90;;;;;;5109939;28;20171;-75
2022/01/07 09:15:41;;;;;;;4.60;2.20;;;11.00;99.90;;;;;;5109611;28;20615;-74
2022/01/07 09:18:10;;;;;;;4.75;2.33;;;10.60;99.90;;;;;;5109903;28;20163;-74
2022/01/07 09:20:38;;;;;;;5.68;3.15;;;10.20;99.90;;;;;;5109892;28;20171;-75
2022/01/07 09:23:05;;;;;;;3.67;2.58;;;9.80;99.90;;;;;;5090537;28;20191;-75
2022/01/07 09:25:31;;;;;;;7.50;3.55;;;9.20;99.90;;;;;;5109776;28;20151;-75
2022/01/07 09:27:57;;;;;;;4.47;2.80;;;9.50;99.90;;;;;;5109755;28;20178;-75
2022/01/07 09:30:23;;;;;;;4.47;2.55;;;10.10;99.90;;;;;;5091519;28;20199;-75
2022/01/07 09:32:49;;;;;;;9.93;2.85;;;10.70;99.90;;;;;;5108685;28;20156;-75
2022/01/07 09:35:16;;;;;;;19.10;3.03;;;9.50;99.90;;;;;;5091516;28;20178;-75
2022/01/07 09:37:43;;;;;;;4.78;2.08;;;8.60;99.90;;;;;;5109754;28;20156;-75
2022/01/07 09:40:10;;;;;;;5.03;2.22;;;8.70;99.90;;;;;;5091287;28;20199;-74
2022/01/07 09:42:37;;;;;;;11.82;3.25;;;9.60;99.90;;;;;;5109547;28;20166;-75
2022/01/07 09:45:04;;;;;;;3.30;2.33;;;10.40;99.90;;;;;;5109573;28;20545;-75
2022/01/07 09:47:30;;;;;;;4.88;2.78;;;10.00;99.90;;;;;;5109511;28;20158;-74
2022/01/07 09:49:56;;;;;;;5.45;1.88;;;10.20;99.90;;;;;;5091113;28;20195;-74
2022/01/07 09:52:24;;;;;;;4.57;2.55;;;10.30;99.90;;;;;;5091241;28;20171;-75
2022/01/07 09:54:49;;;;;;;8.65;2.38;;;10.00;99.90;;;;;;5107908;28;20178;-75
2022/01/07 09:57:15;;;;;;;3.78;2.25;;;9.30;99.90;;;;;;5090969;28;20164;-75
2022/01/07 09:59:41;;;;;;;4.18;2.55;;;9.30;99.90;;;;;;5090835;28;20250;-75
2022/01/07 10:02:09;;;;;;;6.25;2.65;;;9.30;99.90;;;;;;5091002;28;20192;-75
2022/01/07 10:04:39;;;;;;;9.05;3.47;;;8.90;99.90;;;;;;5107873;28;20191;-74
2022/01/07 10:07:25;;;;;;;5.78;2.70;;;9.70;99.90;;;;;;5109425;28;20158;-75
2022/01/07 10:10:00;;;;;;;4.05;2.47;;;10.00;99.90;;;;;;5090672;28;20195;-74
2022/01/07 10:12:28;;;;;;;9.43;3.05;;;10.50;99.90;;;;;;5091092;28;20215;-75
2022/01/07 10:15:15;;;;;;;7.80;2.92;;;11.00;99.90;;;;;;5109218;28;20183;-74
2022/01/07 10:17:42;;;;;;;4.85;3.42;;;10.10;99.90;;;;;;5114021;28;20195;-74
2022/01/07 10:20:14;;;;;;;9.60;3.30;;;9.50;99.90;;;;;;5124234;28;20227;-74
2022/01/07 10:22:59;;;;;;;5.97;2.67;;;9.80;99.90;;;;;;5092538;28;20167;-75
2022/01/07 10:25:33;;;;;;;6.72;2.80;;;10.60;99.90;;;;;;5096740;28;20190;-75
2022/01/07 10:28:06;;;;;;;6.15;3.33;;;10.40;99.90;;;;;;5129646;28;20155;-74
2022/01/07 10:30:38;;;;;;;14.23;5.30;;;10.50;99.90;;;;;;5111100;28;20198;-75
2022/01/07 10:33:22;;;;;;;7.00;2.95;;;10.70;99.90;;;;;;5111089;28;20159;-74
2022/01/07 10:35:54;;;;;;;4.60;2.30;;;11.10;99.90;;;;;;5090816;28;20202;-74
2022/01/07 10:38:28;;;;;;;4.80;2.90;;;10.60;99.90;;;;;;5090643;28;20163;-74
2022/01/07 10:41:01;;;;;;;6.70;2.88;;;10.50;99.90;;;;;;5090502;28;20164;-75
2022/01/07 10:43:34;;;;;;;4.57;2.33;;;10.20;99.90;;;;;;5090901;28;20195;-74
2022/01/07 10:46:01;;;;;;;3.83;2.65;;;10.80;99.90;;;;;;5094784;28;20203;-74
2022/01/07 10:48:53;;;;;;;4.32;2.35;;;11.00;99.90;;;;;;5094558;28;20190;-74
2022/01/07 10:51:23;;;;;;;6.57;2.15;;;10.40;99.90;;;;;;5121171;28;20202;-74
2022/01/07 10:53:59;;;;;;;8.00;2.20;;;10.20;99.90;;;;;;5133410;28;20158;-74
2022/01/07 10:56:40;;;;;;;4.80;2.58;;;10.00;99.90;;;;;;5133285;28;20162;-74
2022/01/07 10:59:08;;;;;;;6.53;2.80;;;11.10;99.90;;;;;;5132946;28;20290;-74
2022/01/07 11:01:50;;;;;;;5.45;2.47;;;12.00;99.90;;;;;;5133181;28;20162;-74
2022/01/07 11:04:20;;;;;;;18.27;2.67;;;11.60;99.90;;;;;;5114522;28;20202;-74
2022/01/07 11:06:48;;;;;;;4.22;2.38;;;11.80;99.90;;;;;;5132868;28;20147;-74
2022/01/07 11:09:17;;;;;;;3.15;2.53;;;11.50;99.90;;;;;;5114441;28;20269;-74
2022/01/07 11:12:06;;;;;;;9.85;2.83;;;12.20;99.90;;;;;;5132922;28;20150;-74
2022/01/07 11:14:37;;;;;;;6.15;1.88;;;11.70;99.90;;;;;;5132889;28;20151;-75
2022/01/07 11:17:04;;;;;;;5.00;2.15;;;11.90;99.90;;;;;;5107527;28;20193;-74
2022/01/07 11:19:55;;;;;;;3.55;2.00;;;10.80;99.90;;;;;;5093802;28;20206;-74
2022/01/07 11:22:22;;;;;;;2.65;1.77;;;10.80;99.90;;;;;;5099078;28;20194;-73
2022/01/07 11:24:54;;;;;;;5.30;1.65;;;10.40;99.90;;;;;;5129031;28;20183;-74
2022/01/07 11:27:26;;;;;;;3.42;2.15;;;10.00;99.90;;;;;;5093624;28;20170;-75
2022/01/07 11:30:09;;;;;;;7.43;2.17;;;9.60;99.90;;;;;;5093440;28;20198;-75
2022/01/07 11:32:42;;;;;;;9.23;2.25;;;9.30;99.90;;;;;;5112048;28;20174;-75
2022/01/07 11:35:17;;;;;;;3.20;1.90;;;9.50;99.90;;;;;;5093682;28;20163;-74
2022/01/07 11:37:53;;;;;;;2.38;1.50;;;9.80;99.90;;;;;;5093415;28;20183;-74
2022/01/07 11:40:31;;;;;;;4.70;1.52;;;8.70;99.90;;;;;;5111349;28;20533;-74
2022/01/07 11:43:05;;;;;;;2.05;1.40;;;9.50;99.90;;;;;;5111662;28;20170;-73
2022/01/07 11:45:40;;;;;;;2.70;2.03;;;9.00;99.90;;;;;;5111782;28;20242;-73
2022/01/07 11:48:09;;;;;;;3.95;1.77;;;8.80;99.90;;;;;;5102094;28;20196;-73
2022/01/07 11:50:56;;;;;;;5.60;2.50;;;8.20;99.90;;;;;;5127938;28;20182;-73
2022/01/07 11:53:23;;;;;;;6.97;1.65;;;8.10;99.90;;;;;;5132290;28;20146;-73
2022/01/07 11:55:52;;;;;;;3.13;1.80;;;8.20;99.90;;;;;;5130927;28;20195;-73
2022/01/07 11:58:18;;;;;;;4.05;2.13;;;8.20;99.90;;;;;;5131795;28;20214;-73
2022/01/07 12:00:49;;;;;;;3.17;1.60;;;8.60;99.90;;;;;;5112807;28;20183;-73
2022/01/07 12:03:43;;;;;;;4.10;1.50;;;8.30;99.90;;;;;;5131752;28;20162;-72
2022/01/07 12:06:20;;;;;;;2.75;1.88;;;7.80;99.90;;;;;;5113276;28;20195;-73
2022/01/07 12:08:58;;;;;;;3.88;1.80;;;7.70;99.90;;;;;;5113034;28;20173;-73
2022/01/07 12:11:28;;;;;;;3.53;1.50;;;7.90;99.90;;;;;;5112600;28;20166;-72
2022/01/07 12:13:55;;;;;;;2.95;1.65;;;7.50;99.60;;;;;;5131652;28;20645;-73
2022/01/07 12:16:32;;;;;;;7.78;2.17;;;7.50;99.90;;;;;;5131475;28;20222;-73
2022/01/07 12:19:36;;;;;;;2.75;2.00;;;8.20;99.90;;;;;;5131601;28;20155;-72
2022/01/07 12:22:11;;;;;;;2.08;1.27;;;8.80;99.90;;;;;;5130661;28;20547;-73
2022/01/07 12:24:38;;;;;;;2.65;1.48;;;8.70;99.10;;;;;;5131107;28;20214;-73
2022/01/07 12:27:09;;;;;;;3.35;1.80;;;8.70;98.80;;;;;;5131688;28;20162;-73
2022/01/07 12:29:37;;;;;;;1.73;1.35;;;9.20;99.10;;;;;;5131401;28;20162;-72
2022/01/07 12:32:05;;;;;;;3.15;1.65;;;9.00;97.40;;;;;;5148331;27;20174;-73
2022/01/07 12:34:34;;;;;;;4.25;1.83;;;8.30;98.50;;;;;;5132643;27;20198;-73
2022/01/07 12:37:05;;;;;;;2.13;1.25;;;7.50;99.40;;;;;;5133274;27;20173;-73
2022/01/07 12:39:33;;;;;;;2.65;1.50;;;6.20;99.90;;;;;;5133053;27;20177;-73
2022/01/07 12:41:59;;;;;;;3.47;1.67;;;5.30;99.90;;;;;;5151061;27;20150;-73
2022/01/07 12:44:25;;;;;;;2.60;1.23;;;4.40;99.90;;;;;;5151310;27;20211;-73
2022/01/07 12:46:57;;;;;;;2.28;1.40;;;3.80;99.90;;;;;;5151307;27;20154;-73
2022/01/07 12:50:03;;;;;;;2.47;1.20;;;3.60;99.90;;;;;;5149449;27;20223;-73
2022/01/07 12:52:32;;;;;;;3.60;1.17;;;3.50;99.90;;;;;;5116602;28;20263;-73
2022/01/07 12:55:16;;;;;;;3.88;0.95;;;3.70;99.90;;;;;;5130454;28;20277;-73
2022/01/07 12:57:47;;;;;;;1.58;1.48;;;3.60;99.90;;;;;;5130600;28;20186;-73
2022/01/07 13:00:23;;;;;;;4.82;1.02;;;3.60;99.90;;;;;;5130440;28;20260;-74
2022/01/07 13:03:03;;;;;;;2.42;1.40;;;3.80;99.90;;;;;;5112312;28;20170;-73